Toledo, Oregon
Current Conditions -  °F | °C
As of 5:55 PM on Monday 24 Nov 2014 (Local Time) from KONP Reporting Station
Light Rain Light Rain  
Wind Chill: 54°   Ceiling: 1500
Heat Index: 54°   Visibility: 2.5mi
Dew Point: 52°   Wind: 20mph
Humidity: 94%   Direction: 190°S
Pressure: 30.31"   Gusts: 25mph
Location:  44.62°N, 123.94°W
Report Text: KONP 250155Z AUTO 19017G22KT 2 1/2SM -RA SCT009 OVC015 12/11 A3031 RMK AO2 P0001
Loading
Personal Weather Stations






























Interactive Weather Map New forecast layout! Learn more

10-Day Weather Forecast

Advertisements
Track Severe Weather on mobile